CYKQ

Waskaganish Airport

ICAO Code CYKQ
IATA Code YKQ
Name Waskaganish Airport
Location Waskaganish, Quebec, CA
Elevation 79 Feet / 24.1 Meters
Latitude 51.47333333
Longitude -78.75833333
METAR CYKQ 012100Z 32008KT 15SM OVC010 11/09 A3001 RMK SC8 LAST STFD OBS/NEXT 021300UTC SLP164
Extra information Display Charts and CFS
Display NOTAMS
Runway Length Width Surface Elevation
06 3511 ft 100 ft GRAVEL 78 ft
24 3511 ft 100 ft GRAVEL 77 ft